createdAt,value
2023-02-22T00:04:08.940Z,22.7
2023-02-22T00:06:08.624Z,23.4
2023-02-22T00:08:08.323Z,24.1
2023-02-22T00:10:08.042Z,24.7
2023-02-22T00:14:10.843Z,33.1
2023-02-22T00:16:10.403Z,20.9
2023-02-22T00:18:10.102Z,21.1
2023-02-22T00:20:09.803Z,25.7
2023-02-22T00:24:09.192Z,28.1
2023-02-22T00:26:08.878Z,23.1
2023-02-22T00:28:11.971Z,22.6
2023-02-22T00:30:11.703Z,22.5
2023-02-22T00:32:11.513Z,19.8
2023-02-22T00:33:12.937Z,30.5
2023-02-22T00:35:12.623Z,24.3
2023-02-22T00:37:12.355Z,27.4
2023-02-22T00:39:12.113Z,21.5
2023-02-22T00:41:15.619Z,23.4
2023-02-22T00:43:15.048Z,25.5
2023-02-22T00:45:14.817Z,19.6
2023-02-22T00:47:14.509Z,24.4
2023-02-22T00:49:14.300Z,30.4
2023-02-22T00:51:14.336Z,21.1
2023-02-22T00:53:13.684Z,24.9
2023-02-22T00:55:16.769Z,23
2023-02-22T00:57:18.504Z,34.8
2023-02-22T00:59:16.288Z,30.9
2023-02-22T01:01:16.238Z,30.8
2023-02-22T01:03:15.701Z,27.3
2023-02-22T01:05:15.400Z,21.4
2023-02-22T01:19:16.996Z,38.6
2023-02-22T01:21:18.590Z,42.7
2023-02-22T01:23:21.428Z,42.3
2023-02-22T01:31:36.324Z,43.9
2023-02-22T01:41:38.245Z,40.2
2023-02-22T01:43:37.953Z,41.2
2023-02-22T01:47:37.343Z,60.1
2023-02-22T01:49:40.476Z,64.7
2023-02-22T01:51:40.245Z,89.2
2023-02-22T01:53:39.951Z,66.2
2023-02-22T01:55:39.669Z,62.8
2023-02-22T01:57:39.377Z,68.8
2023-02-22T02:01:38.797Z,71.2
2023-02-22T02:05:41.629Z,53.4
2023-02-22T02:11:40.973Z,74
2023-02-22T02:13:40.598Z,84.4
2023-02-22T02:15:40.326Z,68.3
2023-02-22T02:17:43.593Z,63.5
2023-02-22T02:21:42.941Z,75
2023-02-22T02:26:44.166Z,64.6
2023-02-22T02:28:43.866Z,60.4
2023-02-22T02:30:46.985Z,74.6
2023-02-22T02:32:46.818Z,71.8
2023-02-22T02:34:46.565Z,74.3
2023-02-22T02:36:46.284Z,60.1
2023-02-22T02:38:46.124Z,53.7
2023-02-22T02:40:45.797Z,73.1
2023-02-22T02:42:45.525Z,63.8
2023-02-22T02:44:48.680Z,59.3
2023-02-22T02:46:48.473Z,69.2
2023-02-22T02:48:48.107Z,58.9
2023-02-22T02:50:47.804Z,43.5
2023-02-22T02:56:46.921Z,54.5
2023-02-22T02:58:50.205Z,55.2
2023-02-22T03:00:49.917Z,54.8
2023-02-22T03:02:49.646Z,42.7
2023-02-22T03:04:49.491Z,43.4
2023-02-22T03:06:49.267Z,68.8
2023-02-22T03:08:49.045Z,46.8
2023-02-22T03:10:48.765Z,39.2
2023-02-22T03:12:51.888Z,52.1
2023-02-22T03:17:52.972Z,38.2
2023-02-22T03:19:52.780Z,23.3
2023-02-22T03:21:52.476Z,38.2
2023-02-22T03:23:52.196Z,37.9
2023-02-22T03:25:55.300Z,42.1
2023-02-22T03:27:55.076Z,29.4
2023-02-22T03:29:54.821Z,31.3
2023-02-22T03:31:54.676Z,30.2
2023-02-22T03:37:53.934Z,35
2023-02-22T03:39:57.171Z,34.3
2023-02-22T03:41:56.937Z,37
2023-02-22T03:43:56.697Z,29.5
2023-02-22T03:47:56.322Z,35.4
2023-02-22T03:49:56.090Z,36.9
2023-02-22T03:51:55.801Z,33.5
2023-02-22T03:53:58.936Z,34.3
2023-02-22T03:55:58.759Z,41.5
2023-02-22T03:57:58.559Z,25.4
2023-02-22T03:59:58.253Z,29.8
2023-02-22T04:01:57.966Z,28.9
2023-02-22T04:03:57.710Z,33.1
2023-02-22T04:05:57.397Z,36
2023-02-22T04:08:00.561Z,31.2
2023-02-22T04:12:00.183Z,41
2023-02-22T04:13:01.828Z,34.6
2023-02-22T04:17:01.439Z,24
2023-02-22T04:19:01.172Z,27.3
2023-02-22T04:21:04.410Z,32.4
2023-02-22T04:23:04.260Z,26
2023-02-22T04:25:03.944Z,30.8
2023-02-22T04:27:03.763Z,29.4
2023-02-22T04:29:03.482Z,30.1
2023-02-22T04:31:03.375Z,29.8
2023-02-22T04:33:03.148Z,31
2023-02-22T04:35:06.477Z,31.1
2023-02-22T04:37:06.295Z,35.2
2023-02-22T04:39:06.108Z,35.1
2023-02-22T04:41:05.929Z,36.2
2023-02-22T04:43:05.678Z,32.1
2023-02-22T04:45:05.518Z,32.2
2023-02-22T04:47:05.334Z,31.4
2023-02-22T04:49:08.581Z,44
2023-02-22T04:51:08.301Z,34.2
2023-02-22T04:53:08.140Z,33.8
2023-02-22T04:55:07.979Z,39.6
2023-02-22T04:59:07.621Z,32.1
2023-02-22T05:03:10.694Z,30.2
2023-02-22T05:05:10.498Z,31.2
2023-02-22T05:07:10.323Z,32.1
2023-02-22T05:09:31.845Z,35.1
2023-02-22T05:11:31.652Z,34.4
2023-02-22T05:13:31.393Z,41.3
2023-02-22T05:15:34.644Z,37.2
2023-02-22T05:17:34.452Z,39.3
2023-02-22T05:19:34.273Z,33.2
2023-02-22T05:21:34.124Z,32.3
2023-02-22T05:23:33.935Z,33.4
2023-02-22T05:31:36.702Z,49.2
2023-02-22T05:33:36.367Z,33.8
2023-02-22T05:35:36.124Z,40.6
2023-02-22T05:37:35.962Z,31.2
2023-02-22T05:39:35.795Z,41.8
2023-02-22T05:41:35.597Z,43.8
2023-02-22T05:43:38.939Z,45
2023-02-22T05:45:38.783Z,49.8
2023-02-22T05:47:38.600Z,42.2
2023-02-22T05:49:38.397Z,39
2023-02-22T05:51:38.253Z,44.9
2023-02-22T05:53:37.982Z,41.8
2023-02-22T05:55:37.796Z,53.9
2023-02-22T05:57:41.139Z,50.8
2023-02-22T05:59:40.956Z,53
2023-02-22T06:01:40.804Z,45.4
2023-02-22T06:06:42.100Z,42.6
2023-02-22T06:08:41.930Z,51
2023-02-22T06:10:45.281Z,31.3
2023-02-22T06:14:44.815Z,44.7
2023-02-22T06:16:44.654Z,47.6
2023-02-22T06:18:44.440Z,33.1
2023-02-22T06:20:44.263Z,39.2
2023-02-22T06:22:44.064Z,54.2
2023-02-22T06:24:47.284Z,56.2
2023-02-22T06:26:47.136Z,76.6
2023-02-22T06:28:46.950Z,44.6
2023-02-22T06:30:46.862Z,46.5
2023-02-22T06:32:46.604Z,68.9
2023-02-22T06:34:46.452Z,60.1
2023-02-22T06:36:46.278Z,84.7
2023-02-22T06:38:49.620Z,74.8
2023-02-22T06:40:49.456Z,60.1
2023-02-22T06:42:49.329Z,70.1
2023-02-22T06:48:48.789Z,91.4
2023-02-22T06:50:48.617Z,86.3
2023-02-22T06:52:51.948Z,104.6
2023-02-22T06:56:51.594Z,76.3
2023-02-22T06:57:53.231Z,89.9
2023-02-22T06:59:53.012Z,91.6
2023-02-22T07:01:52.799Z,53.4
2023-02-22T07:03:52.547Z,100.1
2023-02-22T07:05:57.314Z,114.8
2023-02-22T07:07:57.161Z,115.7
2023-02-22T07:09:57.020Z,113.1
2023-02-22T07:13:56.677Z,114.1
2023-02-22T07:19:59.666Z,131.6
2023-02-22T07:21:59.591Z,138
2023-02-22T07:23:59.348Z,118.4
2023-02-22T07:25:59.169Z,108
2023-02-22T07:27:58.990Z,87.8
2023-02-22T07:29:58.752Z,123.9
2023-02-22T07:31:58.612Z,116.6
2023-02-22T07:34:01.938Z,145.5
2023-02-22T07:36:01.752Z,138.8
2023-02-22T07:38:01.584Z,127.5
2023-02-22T07:40:01.801Z,146.9
2023-02-22T07:42:01.637Z,93.3
2023-02-22T07:44:01.473Z,141.2
2023-02-22T07:46:01.353Z,92.3
2023-02-22T07:48:04.638Z,121.3
2023-02-22T07:55:05.707Z,94.8
2023-02-22T07:57:05.555Z,91.9
2023-02-22T07:59:05.333Z,87.3
2023-02-22T08:01:08.643Z,164
2023-02-22T08:03:08.405Z,202.2
2023-02-22T08:05:08.260Z,187.2
2023-02-22T08:07:08.097Z,142.4
2023-02-22T08:09:07.932Z,88.8
2023-02-22T08:11:07.759Z,79.7
2023-02-22T08:13:07.501Z,61.1
2023-02-22T08:15:10.834Z,110.1
2023-02-22T08:21:10.260Z,149.6
2023-02-22T08:23:10.094Z,75.9
2023-02-22T08:25:09.929Z,103.9
2023-02-22T08:29:13.082Z,128.4
2023-02-22T08:31:12.908Z,75.7
2023-02-22T08:35:12.583Z,87.4
2023-02-22T08:39:12.249Z,95.6
2023-02-22T08:47:14.918Z,85.7
2023-02-22T08:49:30.466Z,77.2
2023-02-22T08:57:33.309Z,96.4
2023-02-22T09:01:33.735Z,63.6
2023-02-22T09:05:32.382Z,72.6
2023-02-22T09:07:32.148Z,65.4
2023-02-22T09:09:35.440Z,79.8
2023-02-22T09:11:35.157Z,80.9
2023-02-22T09:13:34.983Z,61.3
2023-02-22T09:15:34.761Z,69.3
2023-02-22T09:19:34.361Z,76.1
2023-02-22T09:21:34.149Z,69.4
2023-02-22T09:23:37.393Z,70.1
2023-02-22T09:25:37.190Z,61.9
2023-02-22T09:27:36.911Z,60.3
2023-02-22T09:29:36.676Z,59.5
2023-02-22T09:31:36.626Z,59.4
2023-02-22T09:33:36.218Z,64.6
2023-02-22T09:35:36.482Z,56.7
2023-02-22T09:37:39.215Z,69.6
2023-02-22T09:39:38.951Z,66.9
2023-02-22T09:41:38.680Z,53.3
2023-02-22T09:42:40.275Z,44.6
2023-02-22T09:44:40.101Z,66.6
2023-02-22T09:46:39.771Z,56.5
2023-02-22T09:48:39.491Z,55.8
2023-02-22T09:50:42.698Z,57
2023-02-22T09:52:42.539Z,56.4
2023-02-22T09:54:42.322Z,53.5
2023-02-22T09:56:42.060Z,72.5
2023-02-22T09:58:41.925Z,47.2
2023-02-22T10:00:41.566Z,48.6
2023-02-22T10:02:41.310Z,66.4
2023-02-22T10:04:44.541Z,68.2
2023-02-22T10:06:44.328Z,43.6
2023-02-22T10:08:44.120Z,58.7
2023-02-22T10:10:43.861Z,56.6
2023-02-22T10:12:43.569Z,67.6
2023-02-22T10:20:45.927Z,47
2023-02-22T10:32:47.495Z,53.6
2023-02-22T10:36:46.910Z,33.6
2023-02-22T10:37:48.485Z,48.8
2023-02-22T10:39:48.161Z,49.5
2023-02-22T10:41:48.411Z,50.6
2023-02-22T10:43:48.104Z,47.6
2023-02-22T10:45:51.208Z,44.9
2023-02-22T10:47:50.924Z,40
2023-02-22T10:49:50.581Z,48.9
2023-02-22T10:51:50.256Z,40.7
2023-02-22T10:53:49.942Z,54.4
2023-02-22T10:55:49.665Z,52.7
2023-02-22T10:57:49.281Z,61.9
2023-02-22T11:03:51.705Z,44.1
2023-02-22T11:05:51.368Z,46.7
2023-02-22T11:09:50.678Z,40.7
2023-02-22T11:11:50.339Z,48.5
2023-02-22T11:13:53.359Z,36.2
2023-02-22T11:15:52.996Z,46.9
2023-02-22T11:17:52.666Z,35.8
2023-02-22T11:19:52.386Z,41.4
2023-02-22T11:25:51.226Z,51.8
2023-02-22T11:27:54.254Z,47.7
2023-02-22T11:29:53.896Z,48.6
2023-02-22T11:31:53.628Z,49.1
2023-02-22T11:32:55.140Z,53.4
2023-02-22T11:35:08.319Z,41.3
2023-02-22T11:36:54.249Z,55.1
2023-02-22T11:38:53.857Z,41.6
2023-02-22T11:40:56.871Z,54.9
2023-02-22T11:42:56.588Z,46.3
2023-02-22T11:48:55.271Z,46
2023-02-22T11:50:54.862Z,47.4
2023-02-22T11:52:54.426Z,52.7
2023-02-22T11:54:57.453Z,43.5
2023-02-22T11:56:56.996Z,45
2023-02-22T11:58:56.582Z,43
2023-02-22T12:00:56.165Z,37.8
2023-02-22T12:04:55.481Z,39.3
2023-02-22T12:06:54.879Z,38.6
2023-02-22T12:08:57.810Z,50.8
2023-02-22T12:10:57.391Z,43.3
2023-02-22T12:12:56.966Z,44.7
2023-02-22T12:14:56.487Z,35.4
2023-02-22T12:16:56.042Z,39.3
2023-02-22T12:18:55.586Z,33.5
2023-02-22T12:20:55.725Z,33.4
2023-02-22T12:22:58.090Z,41.4
2023-02-22T12:26:57.199Z,33.8
2023-02-22T12:31:18.489Z,44
2023-02-22T12:33:17.760Z,33.7
2023-02-22T12:35:20.700Z,42.6
2023-02-22T12:37:20.252Z,43.9
2023-02-22T12:39:19.811Z,35.4
2023-02-22T12:41:19.531Z,38.4
2023-02-22T12:43:18.939Z,40.7
2023-02-22T12:45:18.529Z,37.3
2023-02-22T12:53:21.582Z,35.9
2023-02-22T12:59:20.327Z,38
2023-02-22T13:07:22.042Z,38.8
2023-02-22T13:09:21.618Z,36.2
2023-02-22T13:11:21.190Z,31.4
2023-02-22T13:13:20.801Z,34
2023-02-22T13:15:20.375Z,27.1
2023-02-22T13:17:23.387Z,36.9
2023-02-22T13:19:22.955Z,31.1
2023-02-22T13:21:22.522Z,28.4
2023-02-22T13:22:25.552Z,27.3
2023-02-22T13:24:23.625Z,33.1
2023-02-22T13:26:23.228Z,29.3
2023-02-22T13:28:22.806Z,34.9
2023-02-22T13:30:25.783Z,29
2023-02-22T13:32:25.489Z,32.2
2023-02-22T13:34:24.953Z,33
2023-02-22T13:36:24.566Z,28.3
2023-02-22T13:38:24.181Z,29.4
2023-02-22T13:40:23.779Z,32.8
2023-02-22T13:42:23.355Z,26.5
2023-02-22T13:44:26.390Z,28
2023-02-22T13:46:26.020Z,23.6
2023-02-22T13:48:25.590Z,25
2023-02-22T13:50:25.216Z,33.1
2023-02-22T13:52:24.840Z,30.3
2023-02-22T13:54:24.455Z,26.8
2023-02-22T13:56:24.027Z,26.9
2023-02-22T13:58:27.087Z,34.7
2023-02-22T14:00:26.686Z,31.7
2023-02-22T14:02:26.293Z,30.4
2023-02-22T14:12:27.767Z,33.3
2023-02-22T14:14:27.402Z,28.3
2023-02-22T14:16:27.078Z,21.9
2023-02-22T14:17:28.517Z,31.1
2023-02-22T14:19:28.130Z,24.8
2023-02-22T14:21:27.819Z,22
2023-02-22T14:23:27.375Z,18.9
2023-02-22T14:25:30.419Z,21.6
2023-02-22T14:27:30.039Z,27.2
2023-02-22T14:29:29.658Z,26.3
2023-02-22T14:33:28.912Z,23.2
2023-02-22T14:35:33.341Z,27.3
2023-02-22T14:37:28.157Z,24.5
2023-02-22T14:39:31.200Z,23.6
2023-02-22T14:41:30.816Z,38.8
2023-02-22T14:43:30.440Z,29.2
2023-02-22T14:47:29.704Z,24.3
2023-02-22T14:49:29.318Z,28.3
2023-02-22T14:51:29.415Z,24.2
2023-02-22T14:55:31.600Z,23.8
2023-02-22T14:59:30.872Z,20.6
2023-02-22T15:01:44.386Z,23.8
2023-02-22T15:03:30.154Z,21.7
2023-02-22T15:05:29.793Z,25.3
2023-02-22T15:07:32.820Z,27.1
2023-02-22T15:09:34.507Z,22.5
2023-02-22T15:11:32.107Z,35.8
2023-02-22T15:14:33.289Z,30.1
2023-02-22T15:16:32.967Z,31.1
2023-02-22T15:18:32.784Z,36.4
2023-02-22T15:22:35.265Z,28.7
2023-02-22T15:24:34.892Z,33.4
2023-02-22T15:26:34.523Z,27.3
2023-02-22T15:28:34.164Z,30.5
2023-02-22T15:30:33.849Z,26.2
2023-02-22T15:32:33.450Z,28.8
2023-02-22T15:34:36.474Z,25.9
2023-02-22T15:36:36.128Z,29.2
2023-02-22T15:38:35.781Z,25.9
2023-02-22T15:40:35.448Z,31.4
2023-02-22T15:42:35.094Z,21.2
2023-02-22T15:46:34.362Z,29.4
2023-02-22T15:48:37.382Z,23.3
2023-02-22T15:50:37.063Z,28.8
2023-02-22T15:52:36.692Z,20.9
2023-02-22T15:54:36.328Z,23.4
2023-02-22T15:56:36.022Z,26.8
2023-02-22T15:58:35.659Z,22.7
2023-02-22T16:00:35.273Z,28.8
2023-02-22T16:02:38.432Z,21.5
2023-02-22T16:04:38.041Z,24.6
2023-02-22T16:06:37.641Z,24.8
2023-02-22T16:08:59.352Z,29.3
2023-02-22T16:10:58.982Z,25.2
2023-02-22T16:12:58.656Z,29
2023-02-22T16:15:01.722Z,29.3
2023-02-22T16:17:01.354Z,35.9
2023-02-22T16:19:00.987Z,32.9
2023-02-22T16:21:00.671Z,28
2023-02-22T16:26:59.632Z,33.1
2023-02-22T16:29:02.675Z,30.3
2023-02-22T16:33:02.013Z,33.5
2023-02-22T16:39:01.009Z,30.6
2023-02-22T16:41:00.637Z,25.7
2023-02-22T16:49:02.663Z,32.1
2023-02-22T16:51:02.576Z,27.7
2023-02-22T16:53:01.953Z,38.2
2023-02-22T16:55:01.618Z,36.1
2023-02-22T16:57:04.703Z,31.7
2023-02-22T16:59:04.384Z,24.1
2023-02-22T17:02:05.556Z,30.6
2023-02-22T17:04:05.201Z,39.1
2023-02-22T17:06:04.860Z,44.1
2023-02-22T17:08:04.530Z,30.9
2023-02-22T17:10:07.729Z,29.3
2023-02-22T17:12:07.296Z,27.8
2023-02-22T17:14:06.956Z,27.6
2023-02-22T17:16:06.650Z,25.3
2023-02-22T17:24:08.679Z,37.2
2023-02-22T17:26:08.341Z,36.1
2023-02-22T17:28:07.996Z,27.2
2023-02-22T17:30:07.722Z,38
2023-02-22T17:32:07.340Z,39.9
2023-02-22T17:34:06.952Z,24.9
2023-02-22T17:36:06.644Z,24.5
2023-02-22T17:38:09.672Z,12.9
2023-02-22T17:40:09.394Z,29.8
2023-02-22T17:42:08.999Z,26
2023-02-22T17:44:08.651Z,34.2
2023-02-22T17:46:08.400Z,25.6
2023-02-22T17:48:07.999Z,24.5
2023-02-22T17:50:07.625Z,25.9
2023-02-22T17:52:10.678Z,23
2023-02-22T17:54:10.591Z,25.6
2023-02-22T17:56:09.997Z,28.3
2023-02-22T17:57:11.483Z,21.3
2023-02-22T17:59:11.137Z,20
2023-02-22T18:01:10.802Z,28.5
2023-02-22T18:03:10.464Z,23.6
2023-02-22T18:05:13.496Z,22.8
2023-02-22T18:07:13.144Z,21
2023-02-22T18:09:12.830Z,30.2
2023-02-22T18:13:12.123Z,16.6
2023-02-22T18:15:11.804Z,21.6
2023-02-22T18:27:13.099Z,27.2
2023-02-22T18:29:12.766Z,25.7
2023-02-22T18:31:12.517Z,30.6
2023-02-22T18:33:15.369Z,28.7
2023-02-22T18:35:16.558Z,27.7
2023-02-22T18:37:16.184Z,23.9
2023-02-22T18:39:15.880Z,31.5
2023-02-22T18:41:15.557Z,29.4
2023-02-22T18:43:15.222Z,22.5
2023-02-22T18:45:14.846Z,21.8
2023-02-22T18:47:17.909Z,33
2023-02-22T18:49:17.557Z,37.1
2023-02-22T18:51:17.333Z,26.5
2023-02-22T18:52:18.735Z,25.6
2023-02-22T18:54:18.410Z,25
2023-02-22T18:56:18.415Z,28.5
2023-02-22T18:58:17.735Z,34.3
2023-02-22T19:00:20.803Z,33.3
2023-02-22T19:02:20.544Z,36.9
2023-02-22T19:04:20.146Z,39.4
2023-02-22T19:06:20.020Z,29.9
2023-02-22T19:08:19.437Z,29
2023-02-22T19:10:19.154Z,26
2023-02-22T19:14:21.923Z,29.5
2023-02-22T19:18:21.270Z,35.7
2023-02-22T19:20:20.940Z,39.4
2023-02-22T19:24:20.272Z,45.5
2023-02-22T19:26:20.359Z,42.5
2023-02-22T19:28:23.038Z,39.1
2023-02-22T19:30:22.690Z,43.4
2023-02-22T19:32:22.478Z,41.9
2023-02-22T19:34:22.053Z,48.3
2023-02-22T19:36:21.716Z,41.9
2023-02-22T19:38:21.386Z,36.6
2023-02-22T19:40:21.059Z,40.3
2023-02-22T19:44:23.794Z,40.6
2023-02-22T19:46:23.487Z,45.7
2023-02-22T19:48:44.891Z,45.7
2023-02-22T19:50:44.574Z,38.1
2023-02-22T19:52:44.239Z,50.9
2023-02-22T19:54:47.311Z,48.9
2023-02-22T19:56:47.014Z,49
2023-02-22T19:58:46.674Z,52.8
2023-02-22T20:00:46.353Z,40.5
2023-02-22T20:02:46.010Z,49.4
2023-02-22T20:04:45.719Z,51.3
2023-02-22T20:06:45.390Z,44.3
2023-02-22T20:08:48.485Z,44.4
2023-02-22T20:10:48.137Z,45.6
2023-02-22T20:12:47.798Z,50.1
2023-02-22T20:14:47.493Z,36.3
2023-02-22T20:16:47.262Z,47
2023-02-22T20:18:46.894Z,55.5
2023-02-22T20:20:46.533Z,48.3
2023-02-22T20:22:49.628Z,48.6
2023-02-22T20:28:48.635Z,54.9
2023-02-22T20:30:48.347Z,55
2023-02-22T20:32:48.222Z,51.2
2023-02-22T20:34:47.672Z,50.7
2023-02-22T20:36:50.746Z,50.4
2023-02-22T20:38:50.435Z,53.3
2023-02-22T20:41:51.666Z,70.8
2023-02-22T20:43:51.339Z,57.5
2023-02-22T20:45:51.061Z,53.1
2023-02-22T20:47:50.718Z,50.4
2023-02-22T20:51:53.798Z,66.8
2023-02-22T20:53:53.465Z,59.8
2023-02-22T20:55:53.138Z,58.5
2023-02-22T20:57:52.795Z,55
2023-02-22T20:59:52.492Z,50.1
2023-02-22T21:01:52.162Z,55.9
2023-02-22T21:03:55.238Z,67.6
2023-02-22T21:05:54.908Z,57.4
2023-02-22T21:07:54.605Z,53.3
2023-02-22T21:23:55.416Z,63.6
2023-02-22T21:25:55.089Z,67
2023-02-22T21:29:54.454Z,58.4
2023-02-22T21:31:57.793Z,59.5
2023-02-22T21:33:57.222Z,65.9
2023-02-22T21:35:56.903Z,78.2
2023-02-22T21:36:58.476Z,68.2
2023-02-22T21:38:58.114Z,50.4
2023-02-22T21:40:57.934Z,63.9
2023-02-22T21:42:57.476Z,78
2023-02-22T21:45:00.570Z,73.5
2023-02-22T21:47:00.321Z,59.5
2023-02-22T21:48:59.961Z,76.8
2023-02-22T21:50:59.652Z,72.3
2023-02-22T21:54:59.020Z,63
2023-02-22T22:03:01.117Z,75
2023-02-22T22:07:00.497Z,61.7
2023-02-22T22:09:00.193Z,78.1
2023-02-22T22:19:02.086Z,80.7
2023-02-22T22:27:04.268Z,82.7
2023-02-22T22:29:03.958Z,62.6
2023-02-22T22:32:05.293Z,74.6
2023-02-22T22:34:04.874Z,63.1
2023-02-22T22:36:04.577Z,66.5
2023-02-22T22:40:07.446Z,70.7
2023-02-22T22:42:07.177Z,73.1
2023-02-22T22:44:06.853Z,65.1
2023-02-22T22:46:06.666Z,72.2
2023-02-22T22:48:06.329Z,81.7
2023-02-22T22:54:08.819Z,85.3
2023-02-22T22:56:08.500Z,69.7
2023-02-22T22:58:08.219Z,79.8
2023-02-22T23:00:07.924Z,64.8
2023-02-22T23:02:07.605Z,92
2023-02-22T23:04:07.300Z,73.4
2023-02-22T23:06:07.005Z,73.5
2023-02-22T23:08:10.097Z,71
2023-02-22T23:10:09.794Z,84.9
2023-02-22T23:12:09.487Z,86.1
2023-02-22T23:14:09.171Z,64.4
2023-02-22T23:16:08.950Z,78
2023-02-22T23:18:08.613Z,71.5
2023-02-22T23:20:08.285Z,68.2
2023-02-22T23:22:11.352Z,76.4
2023-02-22T23:24:11.068Z,78.3
2023-02-22T23:26:10.766Z,73.6
2023-02-22T23:28:30.048Z,69.3
2023-02-22T23:30:29.764Z,70.2
2023-02-22T23:32:29.513Z,72
2023-02-22T23:34:32.524Z,72.6
2023-02-22T23:36:32.274Z,73.4
2023-02-22T23:38:31.930Z,73.2
2023-02-22T23:40:31.624Z,84.4
2023-02-22T23:42:31.339Z,77
2023-02-22T23:44:31.019Z,61.3
2023-02-22T23:46:30.766Z,70.6
2023-02-22T23:48:33.792Z,59.7
2023-02-22T23:58:32.269Z,56
